sensor_id;sensor_type;location;lat;lon;timestamp;P1;durP1;ratioP1;P2;durP2;ratioP2
80293;SDS011;69594;43.516;1.498;2023-04-28T00:01:36;1.60;;;0.80;;
80293;SDS011;69594;43.516;1.498;2023-04-28T00:04:02;3.05;;;1.10;;
80293;SDS011;69594;43.516;1.498;2023-04-28T00:06:28;1.93;;;1.07;;
80293;SDS011;69594;43.516;1.498;2023-04-28T00:08:54;2.10;;;0.90;;
80293;SDS011;69594;43.516;1.498;2023-04-28T00:11:20;1.40;;;1.10;;
80293;SDS011;69594;43.516;1.498;2023-04-28T00:13:45;2.50;;;1.20;;
80293;SDS011;69594;43.516;1.498;2023-04-28T00:16:11;2.10;;;1.30;;
80293;SDS011;69594;43.516;1.498;2023-04-28T00:18:36;2.20;;;1.13;;
80293;SDS011;69594;43.516;1.498;2023-04-28T00:21:01;2.50;;;1.30;;
80293;SDS011;69594;43.516;1.498;2023-04-28T00:23:28;2.10;;;1.10;;
80293;SDS011;69594;43.516;1.498;2023-04-28T00:25:54;1.60;;;1.15;;
80293;SDS011;69594;43.516;1.498;2023-04-28T00:28:21;2.22;;;1.27;;
80293;SDS011;69594;43.516;1.498;2023-04-28T00:30:47;2.73;;;1.20;;
80293;SDS011;69594;43.516;1.498;2023-04-28T00:33:12;3.33;;;1.70;;
80293;SDS011;69594;43.516;1.498;2023-04-28T00:35:38;3.60;;;1.13;;
80293;SDS011;69594;43.516;1.498;2023-04-28T00:38:04;2.85;;;1.20;;
80293;SDS011;69594;43.516;1.498;2023-04-28T00:40:36;2.17;;;1.17;;
80293;SDS011;69594;43.516;1.498;2023-04-28T00:43:03;4.00;;;1.10;;
80293;SDS011;69594;43.516;1.498;2023-04-28T00:45:29;3.20;;;1.27;;
80293;SDS011;69594;43.516;1.498;2023-04-28T00:47:54;4.77;;;1.37;;
80293;SDS011;69594;43.516;1.498;2023-04-28T00:50:21;1.95;;;1.20;;
80293;SDS011;69594;43.516;1.498;2023-04-28T00:52:47;2.63;;;1.17;;
80293;SDS011;69594;43.516;1.498;2023-04-28T00:55:14;2.60;;;1.25;;
80293;SDS011;69594;43.516;1.498;2023-04-28T00:57:40;1.53;;;1.10;;
80293;SDS011;69594;43.516;1.498;2023-04-28T01:00:07;3.10;;;1.40;;
80293;SDS011;69594;43.516;1.498;2023-04-28T01:02:33;3.50;;;1.42;;
80293;SDS011;69594;43.516;1.498;2023-04-28T01:04:59;4.05;;;1.35;;
80293;SDS011;69594;43.516;1.498;2023-04-28T01:07:26;3.00;;;1.42;;
80293;SDS011;69594;43.516;1.498;2023-04-28T01:09:52;3.93;;;1.50;;
80293;SDS011;69594;43.516;1.498;2023-04-28T01:12:18;3.60;;;1.60;;
80293;SDS011;69594;43.516;1.498;2023-04-28T01:14:43;3.33;;;1.20;;
80293;SDS011;69594;43.516;1.498;2023-04-28T01:17:09;2.47;;;1.40;;
80293;SDS011;69594;43.516;1.498;2023-04-28T01:19:35;4.17;;;1.40;;
80293;SDS011;69594;43.516;1.498;2023-04-28T01:22:00;2.25;;;1.35;;
80293;SDS011;69594;43.516;1.498;2023-04-28T01:24:26;3.43;;;1.73;;
80293;SDS011;69594;43.516;1.498;2023-04-28T01:26:52;2.58;;;1.40;;
80293;SDS011;69594;43.516;1.498;2023-04-28T01:29:17;3.17;;;1.60;;
80293;SDS011;69594;43.516;1.498;2023-04-28T01:31:43;3.53;;;1.47;;
80293;SDS011;69594;43.516;1.498;2023-04-28T01:34:08;2.95;;;1.40;;
80293;SDS011;69594;43.516;1.498;2023-04-28T01:36:34;3.77;;;1.63;;
80293;SDS011;69594;43.516;1.498;2023-04-28T01:38:59;3.33;;;1.63;;
80293;SDS011;69594;43.516;1.498;2023-04-28T01:41:25;2.50;;;1.30;;
80293;SDS011;69594;43.516;1.498;2023-04-28T01:43:50;3.33;;;1.27;;
80293;SDS011;69594;43.516;1.498;2023-04-28T01:46:17;3.03;;;1.30;;
80293;SDS011;69594;43.516;1.498;2023-04-28T01:48:43;4.45;;;1.60;;
80293;SDS011;69594;43.516;1.498;2023-04-28T01:51:08;2.33;;;1.53;;
80293;SDS011;69594;43.516;1.498;2023-04-28T01:53:34;2.80;;;1.37;;
80293;SDS011;69594;43.516;1.498;2023-04-28T01:55:59;3.77;;;1.60;;
80293;SDS011;69594;43.516;1.498;2023-04-28T01:58:24;2.67;;;1.55;;
80293;SDS011;69594;43.516;1.498;2023-04-28T02:00:50;4.03;;;1.30;;
80293;SDS011;69594;43.516;1.498;2023-04-28T02:03:15;3.27;;;1.40;;
80293;SDS011;69594;43.516;1.498;2023-04-28T02:05:41;3.27;;;1.70;;
80293;SDS011;69594;43.516;1.498;2023-04-28T02:08:06;4.00;;;1.73;;
80293;SDS011;69594;43.516;1.498;2023-04-28T02:10:31;3.27;;;1.80;;
80293;SDS011;69594;43.516;1.498;2023-04-28T02:12:57;4.13;;;1.80;;
80293;SDS011;69594;43.516;1.498;2023-04-28T02:15:26;6.25;;;1.60;;
80293;SDS011;69594;43.516;1.498;2023-04-28T02:17:51;1.60;;;1.23;;
80293;SDS011;69594;43.516;1.498;2023-04-28T02:20:17;4.32;;;1.70;;
80293;SDS011;69594;43.516;1.498;2023-04-28T02:22:42;2.43;;;1.57;;
80293;SDS011;69594;43.516;1.498;2023-04-28T02:25:08;5.27;;;1.77;;
80293;SDS011;69594;43.516;1.498;2023-04-28T02:27:34;3.73;;;1.80;;
80293;SDS011;69594;43.516;1.498;2023-04-28T02:30:03;3.47;;;1.40;;
80293;SDS011;69594;43.516;1.498;2023-04-28T02:32:29;4.55;;;1.65;;
80293;SDS011;69594;43.516;1.498;2023-04-28T02:34:55;2.30;;;1.48;;
80293;SDS011;69594;43.516;1.498;2023-04-28T02:37:21;2.60;;;1.35;;
80293;SDS011;69594;43.516;1.498;2023-04-28T02:39:47;5.60;;;2.00;;
80293;SDS011;69594;43.516;1.498;2023-04-28T02:42:12;4.83;;;2.00;;
80293;SDS011;69594;43.516;1.498;2023-04-28T02:44:38;4.60;;;2.03;;
80293;SDS011;69594;43.516;1.498;2023-04-28T02:47:03;3.73;;;1.73;;
80293;SDS011;69594;43.516;1.498;2023-04-28T02:49:29;9.30;;;2.10;;
80293;SDS011;69594;43.516;1.498;2023-04-28T02:51:54;4.40;;;1.80;;
80293;SDS011;69594;43.516;1.498;2023-04-28T02:54:23;9.13;;;1.80;;
80293;SDS011;69594;43.516;1.498;2023-04-28T02:56:55;4.35;;;1.98;;
80293;SDS011;69594;43.516;1.498;2023-04-28T02:59:22;3.72;;;1.92;;
80293;SDS011;69594;43.516;1.498;2023-04-28T03:01:48;2.90;;;1.70;;
80293;SDS011;69594;43.516;1.498;2023-04-28T03:04:14;5.78;;;1.75;;
80293;SDS011;69594;43.516;1.498;2023-04-28T03:06:40;3.57;;;1.70;;
80293;SDS011;69594;43.516;1.498;2023-04-28T03:09:07;3.65;;;1.85;;
80293;SDS011;69594;43.516;1.498;2023-04-28T03:11:33;4.43;;;1.95;;
80293;SDS011;69594;43.516;1.498;2023-04-28T03:13:58;5.87;;;2.10;;
80293;SDS011;69594;43.516;1.498;2023-04-28T03:16:24;4.47;;;1.87;;
80293;SDS011;69594;43.516;1.498;2023-04-28T03:18:50;5.03;;;1.98;;
80293;SDS011;69594;43.516;1.498;2023-04-28T03:21:15;5.20;;;1.90;;
80293;SDS011;69594;43.516;1.498;2023-04-28T03:23:40;3.83;;;2.20;;
80293;SDS011;69594;43.516;1.498;2023-04-28T03:26:06;3.00;;;1.90;;
80293;SDS011;69594;43.516;1.498;2023-04-28T03:28:31;3.22;;;1.77;;
80293;SDS011;69594;43.516;1.498;2023-04-28T03:30:57;4.73;;;1.63;;
80293;SDS011;69594;43.516;1.498;2023-04-28T03:33:26;4.20;;;1.77;;
80293;SDS011;69594;43.516;1.498;2023-04-28T03:35:52;4.80;;;2.00;;
80293;SDS011;69594;43.516;1.498;2023-04-28T03:38:18;3.05;;;1.50;;
80293;SDS011;69594;43.516;1.498;2023-04-28T03:40:43;4.57;;;1.97;;
80293;SDS011;69594;43.516;1.498;2023-04-28T03:43:09;3.83;;;2.00;;
80293;SDS011;69594;43.516;1.498;2023-04-28T03:45:35;3.53;;;1.60;;
80293;SDS011;69594;43.516;1.498;2023-04-28T03:48:01;3.17;;;1.90;;
80293;SDS011;69594;43.516;1.498;2023-04-28T03:50:27;6.53;;;1.90;;
80293;SDS011;69594;43.516;1.498;2023-04-28T03:52:52;3.10;;;2.00;;
80293;SDS011;69594;43.516;1.498;2023-04-28T03:55:17;4.15;;;1.92;;
80293;SDS011;69594;43.516;1.498;2023-04-28T03:57:43;4.77;;;1.70;;
80293;SDS011;69594;43.516;1.498;2023-04-28T04:00:08;2.93;;;1.97;;
80293;SDS011;69594;43.516;1.498;2023-04-28T04:02:34;2.78;;;1.77;;
80293;SDS011;69594;43.516;1.498;2023-04-28T04:05:00;3.83;;;1.83;;
80293;SDS011;69594;43.516;1.498;2023-04-28T04:07:26;5.53;;;1.87;;
80293;SDS011;69594;43.516;1.498;2023-04-28T04:09:52;3.47;;;1.75;;
80293;SDS011;69594;43.516;1.498;2023-04-28T04:12:17;3.57;;;1.90;;
80293;SDS011;69594;43.516;1.498;2023-04-28T04:14:43;5.70;;;2.40;;
80293;SDS011;69594;43.516;1.498;2023-04-28T04:17:10;4.00;;;2.10;;
80293;SDS011;69594;43.516;1.498;2023-04-28T04:19:35;4.53;;;2.08;;
80293;SDS011;69594;43.516;1.498;2023-04-28T04:22:01;5.47;;;2.00;;
80293;SDS011;69594;43.516;1.498;2023-04-28T04:24:26;2.53;;;1.77;;
80293;SDS011;69594;43.516;1.498;2023-04-28T04:26:52;4.30;;;2.33;;
80293;SDS011;69594;43.516;1.498;2023-04-28T04:29:17;4.10;;;2.10;;
80293;SDS011;69594;43.516;1.498;2023-04-28T04:31:43;7.23;;;2.43;;
80293;SDS011;69594;43.516;1.498;2023-04-28T04:34:09;6.43;;;2.55;;
80293;SDS011;69594;43.516;1.498;2023-04-28T04:36:35;3.30;;;2.40;;
80293;SDS011;69594;43.516;1.498;2023-04-28T04:39:01;4.57;;;2.40;;
80293;SDS011;69594;43.516;1.498;2023-04-28T04:41:26;5.53;;;2.77;;
80293;SDS011;69594;43.516;1.498;2023-04-28T04:43:51;4.47;;;2.57;;
80293;SDS011;69594;43.516;1.498;2023-04-28T04:46:17;3.92;;;2.40;;
80293;SDS011;69594;43.516;1.498;2023-04-28T04:48:42;5.13;;;2.40;;
80293;SDS011;69594;43.516;1.498;2023-04-28T04:51:08;4.60;;;2.87;;
80293;SDS011;69594;43.516;1.498;2023-04-28T04:53:33;5.15;;;2.70;;
80293;SDS011;69594;43.516;1.498;2023-04-28T04:55:59;7.00;;;2.77;;
80293;SDS011;69594;43.516;1.498;2023-04-28T04:58:25;7.53;;;3.65;;
80293;SDS011;69594;43.516;1.498;2023-04-28T05:00:51;5.37;;;3.80;;
80293;SDS011;69594;43.516;1.498;2023-04-28T05:03:16;8.40;;;3.77;;
80293;SDS011;69594;43.516;1.498;2023-04-28T05:05:42;7.88;;;3.88;;
80293;SDS011;69594;43.516;1.498;2023-04-28T05:08:09;7.23;;;3.20;;
80293;SDS011;69594;43.516;1.498;2023-04-28T05:10:35;5.53;;;3.35;;
80293;SDS011;69594;43.516;1.498;2023-04-28T05:13:00;8.70;;;4.03;;
80293;SDS011;69594;43.516;1.498;2023-04-28T05:15:26;9.27;;;4.47;;
80293;SDS011;69594;43.516;1.498;2023-04-28T05:17:52;7.40;;;4.10;;
80293;SDS011;69594;43.516;1.498;2023-04-28T05:20:17;8.20;;;4.22;;
80293;SDS011;69594;43.516;1.498;2023-04-28T05:22:43;6.20;;;3.73;;
80293;SDS011;69594;43.516;1.498;2023-04-28T05:25:08;7.87;;;4.17;;
80293;SDS011;69594;43.516;1.498;2023-04-28T05:27:33;8.13;;;4.33;;
80293;SDS011;69594;43.516;1.498;2023-04-28T05:30:01;9.10;;;3.95;;
80293;SDS011;69594;43.516;1.498;2023-04-28T05:32:27;7.28;;;4.18;;
80293;SDS011;69594;43.516;1.498;2023-04-28T05:34:52;8.30;;;4.57;;
80293;SDS011;69594;43.516;1.498;2023-04-28T05:37:18;8.23;;;4.00;;
80293;SDS011;69594;43.516;1.498;2023-04-28T05:39:43;8.90;;;5.30;;
80293;SDS011;69594;43.516;1.498;2023-04-28T05:42:08;8.10;;;4.77;;
80293;SDS011;69594;43.516;1.498;2023-04-28T05:44:34;8.98;;;4.50;;
80293;SDS011;69594;43.516;1.498;2023-04-28T05:46:59;7.97;;;4.63;;
80293;SDS011;69594;43.516;1.498;2023-04-28T05:49:25;9.40;;;4.30;;
80293;SDS011;69594;43.516;1.498;2023-04-28T05:51:51;7.20;;;4.30;;
80293;SDS011;69594;43.516;1.498;2023-04-28T05:54:16;7.77;;;4.13;;
80293;SDS011;69594;43.516;1.498;2023-04-28T05:56:42;10.10;;;4.33;;
80293;SDS011;69594;43.516;1.498;2023-04-28T05:59:07;7.90;;;3.80;;
80293;SDS011;69594;43.516;1.498;2023-04-28T06:01:35;8.32;;;3.47;;
80293;SDS011;69594;43.516;1.498;2023-04-28T06:04:00;7.25;;;3.67;;
80293;SDS011;69594;43.516;1.498;2023-04-28T06:06:25;8.57;;;3.40;;
80293;SDS011;69594;43.516;1.498;2023-04-28T06:08:51;6.80;;;3.43;;
80293;SDS011;69594;43.516;1.498;2023-04-28T06:11:18;6.97;;;2.90;;
80293;SDS011;69594;43.516;1.498;2023-04-28T06:13:47;4.30;;;3.00;;
80293;SDS011;69594;43.516;1.498;2023-04-28T06:16:13;5.88;;;3.03;;
80293;SDS011;69594;43.516;1.498;2023-04-28T06:18:41;7.22;;;3.30;;
80293;SDS011;69594;43.516;1.498;2023-04-28T06:21:07;7.70;;;2.80;;
80293;SDS011;69594;43.516;1.498;2023-04-28T06:23:33;4.68;;;2.60;;
80293;SDS011;69594;43.516;1.498;2023-04-28T06:25:59;4.97;;;2.73;;
80293;SDS011;69594;43.516;1.498;2023-04-28T06:28:25;3.95;;;2.75;;
80293;SDS011;69594;43.516;1.498;2023-04-28T06:30:50;5.43;;;3.20;;
80293;SDS011;69594;43.516;1.498;2023-04-28T06:33:16;4.80;;;2.33;;
80293;SDS011;69594;43.516;1.498;2023-04-28T06:35:41;4.80;;;2.70;;
80293;SDS011;69594;43.516;1.498;2023-04-28T06:38:07;6.43;;;2.63;;
80293;SDS011;69594;43.516;1.498;2023-04-28T06:40:32;4.77;;;2.53;;
80293;SDS011;69594;43.516;1.498;2023-04-28T06:42:58;3.55;;;2.60;;
80293;SDS011;69594;43.516;1.498;2023-04-28T06:45:26;4.30;;;3.10;;
80293;SDS011;69594;43.516;1.498;2023-04-28T06:47:52;4.23;;;2.30;;
80293;SDS011;69594;43.516;1.498;2023-04-28T06:50:19;7.03;;;2.60;;
80293;SDS011;69594;43.516;1.498;2023-04-28T06:52:45;5.35;;;2.80;;
80293;SDS011;69594;43.516;1.498;2023-04-28T06:55:13;5.20;;;3.00;;
80293;SDS011;69594;43.516;1.498;2023-04-28T06:57:40;5.53;;;3.08;;
80293;SDS011;69594;43.516;1.498;2023-04-28T07:00:08;4.88;;;2.88;;
80293;SDS011;69594;43.516;1.498;2023-04-28T07:02:34;7.17;;;2.93;;
80293;SDS011;69594;43.516;1.498;2023-04-28T07:05:01;4.45;;;2.85;;
80293;SDS011;69594;43.516;1.498;2023-04-28T07:07:27;5.72;;;2.70;;
80293;SDS011;69594;43.516;1.498;2023-04-28T07:09:53;5.57;;;2.80;;
80293;SDS011;69594;43.516;1.498;2023-04-28T07:12:18;6.50;;;2.97;;
80293;SDS011;69594;43.516;1.498;2023-04-28T07:14:43;4.27;;;2.80;;
80293;SDS011;69594;43.516;1.498;2023-04-28T07:17:09;5.23;;;2.80;;
80293;SDS011;69594;43.516;1.498;2023-04-28T07:19:34;4.93;;;2.40;;
80293;SDS011;69594;43.516;1.498;2023-04-28T07:22:02;7.10;;;2.45;;
80293;SDS011;69594;43.516;1.498;2023-04-28T07:24:29;3.97;;;2.53;;
80293;SDS011;69594;43.516;1.498;2023-04-28T07:26:55;4.47;;;2.67;;
80293;SDS011;69594;43.516;1.498;2023-04-28T07:29:21;3.58;;;2.50;;
80293;SDS011;69594;43.516;1.498;2023-04-28T07:31:48;6.65;;;2.50;;
80293;SDS011;69594;43.516;1.498;2023-04-28T07:34:14;4.03;;;2.30;;
80293;SDS011;69594;43.516;1.498;2023-04-28T07:36:40;5.17;;;2.47;;
80293;SDS011;69594;43.516;1.498;2023-04-28T07:39:06;3.15;;;2.15;;
80293;SDS011;69594;43.516;1.498;2023-04-28T07:41:35;8.03;;;2.73;;
80293;SDS011;69594;43.516;1.498;2023-04-28T07:44:02;6.00;;;2.80;;
80293;SDS011;69594;43.516;1.498;2023-04-28T07:46:29;4.07;;;2.60;;
80293;SDS011;69594;43.516;1.498;2023-04-28T07:48:54;3.53;;;2.40;;
80293;SDS011;69594;43.516;1.498;2023-04-28T07:51:20;4.70;;;2.40;;
80293;SDS011;69594;43.516;1.498;2023-04-28T07:53:46;4.33;;;2.37;;
80293;SDS011;69594;43.516;1.498;2023-04-28T07:56:12;3.65;;;1.98;;
80293;SDS011;69594;43.516;1.498;2023-04-28T07:58:37;5.13;;;2.83;;
80293;SDS011;69594;43.516;1.498;2023-04-28T08:01:03;4.53;;;2.70;;
80293;SDS011;69594;43.516;1.498;2023-04-28T08:03:29;4.97;;;2.70;;
80293;SDS011;69594;43.516;1.498;2023-04-28T08:05:55;4.50;;;2.73;;
80293;SDS011;69594;43.516;1.498;2023-04-28T08:08:20;4.75;;;3.20;;
80293;SDS011;69594;43.516;1.498;2023-04-28T08:10:46;4.93;;;2.60;;
80293;SDS011;69594;43.516;1.498;2023-04-28T08:13:12;5.28;;;2.55;;
80293;SDS011;69594;43.516;1.498;2023-04-28T08:15:38;6.07;;;2.47;;
80293;SDS011;69594;43.516;1.498;2023-04-28T08:18:04;6.37;;;2.73;;
80293;SDS011;69594;43.516;1.498;2023-04-28T08:20:29;4.10;;;2.43;;
80293;SDS011;69594;43.516;1.498;2023-04-28T08:22:56;4.85;;;2.60;;
80293;SDS011;69594;43.516;1.498;2023-04-28T08:25:22;4.37;;;2.57;;
80293;SDS011;69594;43.516;1.498;2023-04-28T08:27:47;4.93;;;2.92;;
80293;SDS011;69594;43.516;1.498;2023-04-28T08:30:12;5.73;;;2.80;;
80293;SDS011;69594;43.516;1.498;2023-04-28T08:32:39;5.83;;;2.63;;
80293;SDS011;69594;43.516;1.498;2023-04-28T08:35:05;4.47;;;2.92;;
80293;SDS011;69594;43.516;1.498;2023-04-28T08:37:31;7.82;;;2.78;;
80293;SDS011;69594;43.516;1.498;2023-04-28T08:39:57;4.33;;;2.77;;
80293;SDS011;69594;43.516;1.498;2023-04-28T08:42:34;4.85;;;2.38;;
80293;SDS011;69594;43.516;1.498;2023-04-28T08:45:00;4.88;;;2.40;;
80293;SDS011;69594;43.516;1.498;2023-04-28T08:47:33;3.93;;;2.63;;
80293;SDS011;69594;43.516;1.498;2023-04-28T08:50:01;3.92;;;2.30;;
80293;SDS011;69594;43.516;1.498;2023-04-28T08:52:28;4.60;;;2.83;;
80293;SDS011;69594;43.516;1.498;2023-04-28T08:54:55;4.15;;;2.50;;
80293;SDS011;69594;43.516;1.498;2023-04-28T08:57:23;7.07;;;2.65;;
80293;SDS011;69594;43.516;1.498;2023-04-28T08:59:53;4.47;;;2.20;;
80293;SDS011;69594;43.516;1.498;2023-04-28T09:02:18;6.22;;;2.47;;
80293;SDS011;69594;43.516;1.498;2023-04-28T09:04:45;4.85;;;2.33;;
80293;SDS011;69594;43.516;1.498;2023-04-28T09:07:11;4.93;;;2.75;;
80293;SDS011;69594;43.516;1.498;2023-04-28T09:09:37;5.73;;;2.80;;
80293;SDS011;69594;43.516;1.498;2023-04-28T09:12:03;6.18;;;2.65;;
80293;SDS011;69594;43.516;1.498;2023-04-28T09:14:31;5.13;;;2.60;;
80293;SDS011;69594;43.516;1.498;2023-04-28T09:17:00;6.07;;;2.10;;
80293;SDS011;69594;43.516;1.498;2023-04-28T09:19:33;3.53;;;2.47;;
80293;SDS011;69594;43.516;1.498;2023-04-28T09:22:02;5.73;;;2.53;;
80293;SDS011;69594;43.516;1.498;2023-04-28T09:24:33;4.57;;;2.60;;
80293;SDS011;69594;43.516;1.498;2023-04-28T09:27:04;4.95;;;2.95;;
80293;SDS011;69594;43.516;1.498;2023-04-28T09:29:32;4.32;;;2.50;;
80293;SDS011;69594;43.516;1.498;2023-04-28T09:32:13;6.35;;;2.60;;
80293;SDS011;69594;43.516;1.498;2023-04-28T09:34:44;5.07;;;3.33;;
80293;SDS011;69594;43.516;1.498;2023-04-28T09:37:15;3.70;;;2.50;;
80293;SDS011;69594;43.516;1.498;2023-04-28T09:39:49;4.55;;;2.67;;
80293;SDS011;69594;43.516;1.498;2023-04-28T09:45:00;4.82;;;3.00;;
80293;SDS011;69594;43.516;1.498;2023-04-28T09:47:30;4.63;;;2.77;;
80293;SDS011;69594;43.516;1.498;2023-04-28T09:50:00;4.60;;;2.92;;
80293;SDS011;69594;43.516;1.498;2023-04-28T09:52:27;5.32;;;2.65;;
80293;SDS011;69594;43.516;1.498;2023-04-28T09:54:56;3.78;;;2.92;;
80293;SDS011;69594;43.516;1.498;2023-04-28T09:57:22;4.90;;;3.10;;
80293;SDS011;69594;43.516;1.498;2023-04-28T09:59:49;6.70;;;2.63;;
80293;SDS011;69594;43.516;1.498;2023-04-28T10:02:16;4.18;;;2.95;;
80293;SDS011;69594;43.516;1.498;2023-04-28T10:04:44;4.97;;;2.97;;
80293;SDS011;69594;43.516;1.498;2023-04-28T10:07:11;4.65;;;2.80;;
80293;SDS011;69594;43.516;1.498;2023-04-28T10:09:38;4.47;;;2.80;;
80293;SDS011;69594;43.516;1.498;2023-04-28T10:12:07;6.07;;;3.37;;
80293;SDS011;69594;43.516;1.498;2023-04-28T10:14:36;6.28;;;3.08;;
80293;SDS011;69594;43.516;1.498;2023-04-28T10:17:02;6.03;;;3.20;;
80293;SDS011;69594;43.516;1.498;2023-04-28T10:19:30;5.95;;;3.17;;
80293;SDS011;69594;43.516;1.498;2023-04-28T10:22:08;5.70;;;2.90;;
80293;SDS011;69594;43.516;1.498;2023-04-28T10:24:58;4.80;;;3.40;;
80293;SDS011;69594;43.516;1.498;2023-04-28T10:27:42;4.68;;;2.90;;
80293;SDS011;69594;43.516;1.498;2023-04-28T10:32:35;4.67;;;2.63;;
80293;SDS011;69594;43.516;1.498;2023-04-28T10:38:07;3.90;;;2.70;;
80293;SDS011;69594;43.516;1.498;2023-04-28T10:40:37;5.90;;;2.50;;
80293;SDS011;69594;43.516;1.498;2023-04-28T10:43:05;6.45;;;2.55;;
80293;SDS011;69594;43.516;1.498;2023-04-28T10:48:16;3.80;;;2.72;;
80293;SDS011;69594;43.516;1.498;2023-04-28T10:56:15;4.82;;;2.40;;
80293;SDS011;69594;43.516;1.498;2023-04-28T10:58:50;4.25;;;2.85;;
80293;SDS011;69594;43.516;1.498;2023-04-28T11:04:08;9.13;;;3.00;;
80293;SDS011;69594;43.516;1.498;2023-04-28T11:06:42;5.13;;;2.60;;
80293;SDS011;69594;43.516;1.498;2023-04-28T11:16:50;4.63;;;2.83;;
80293;SDS011;69594;43.516;1.498;2023-04-28T11:19:19;4.22;;;2.38;;
80293;SDS011;69594;43.516;1.498;2023-04-28T11:21:47;3.58;;;2.50;;
80293;SDS011;69594;43.516;1.498;2023-04-28T11:24:13;3.73;;;2.40;;
80293;SDS011;69594;43.516;1.498;2023-04-28T11:26:39;4.63;;;2.30;;
80293;SDS011;69594;43.516;1.498;2023-04-28T11:29:09;4.82;;;2.67;;
80293;SDS011;69594;43.516;1.498;2023-04-28T11:31:36;3.67;;;2.30;;
80293;SDS011;69594;43.516;1.498;2023-04-28T11:36:38;5.53;;;2.53;;
80293;SDS011;69594;43.516;1.498;2023-04-28T11:39:05;4.25;;;2.85;;
80293;SDS011;69594;43.516;1.498;2023-04-28T11:41:33;3.67;;;2.60;;
80293;SDS011;69594;43.516;1.498;2023-04-28T11:44:17;8.48;;;3.22;;
80293;SDS011;69594;43.516;1.498;2023-04-28T11:49:26;5.97;;;2.63;;
80293;SDS011;69594;43.516;1.498;2023-04-28T11:52:05;6.70;;;2.70;;
80293;SDS011;69594;43.516;1.498;2023-04-28T11:54:33;6.95;;;3.03;;
80293;SDS011;69594;43.516;1.498;2023-04-28T11:56:59;5.57;;;3.13;;
80293;SDS011;69594;43.516;1.498;2023-04-28T11:59:32;3.33;;;2.47;;
80293;SDS011;69594;43.516;1.498;2023-04-28T12:02:03;4.82;;;3.00;;
80293;SDS011;69594;43.516;1.498;2023-04-28T12:09:31;5.90;;;3.40;;
80293;SDS011;69594;43.516;1.498;2023-04-28T12:12:02;5.53;;;3.07;;
80293;SDS011;69594;43.516;1.498;2023-04-28T12:14:32;7.10;;;3.00;;
80293;SDS011;69594;43.516;1.498;2023-04-28T12:17:26;4.40;;;2.78;;
80293;SDS011;69594;43.516;1.498;2023-04-28T12:19:53;8.02;;;3.35;;
80293;SDS011;69594;43.516;1.498;2023-04-28T12:22:19;3.55;;;2.92;;
80293;SDS011;69594;43.516;1.498;2023-04-28T12:24:45;7.53;;;3.43;;
80293;SDS011;69594;43.516;1.498;2023-04-28T12:27:17;6.03;;;3.27;;
80293;SDS011;69594;43.516;1.498;2023-04-28T12:29:48;7.82;;;2.90;;
80293;SDS011;69594;43.516;1.498;2023-04-28T12:32:15;7.28;;;4.25;;
80293;SDS011;69594;43.516;1.498;2023-04-28T12:34:43;6.95;;;3.40;;
80293;SDS011;69594;43.516;1.498;2023-04-28T12:37:10;7.78;;;3.70;;
80293;SDS011;69594;43.516;1.498;2023-04-28T12:39:38;6.03;;;3.20;;
80293;SDS011;69594;43.516;1.498;2023-04-28T12:42:04;6.15;;;3.30;;
80293;SDS011;69594;43.516;1.498;2023-04-28T12:44:31;7.40;;;3.38;;
80293;SDS011;69594;43.516;1.498;2023-04-28T12:47:02;7.55;;;3.03;;
80293;SDS011;69594;43.516;1.498;2023-04-28T12:49:30;8.07;;;3.67;;
80293;SDS011;69594;43.516;1.498;2023-04-28T12:51:55;7.00;;;2.93;;
80293;SDS011;69594;43.516;1.498;2023-04-28T12:54:21;5.95;;;3.47;;
80293;SDS011;69594;43.516;1.498;2023-04-28T12:56:46;7.57;;;3.70;;
80293;SDS011;69594;43.516;1.498;2023-04-28T12:59:12;6.57;;;3.30;;
80293;SDS011;69594;43.516;1.498;2023-04-28T13:01:38;6.60;;;3.20;;
80293;SDS011;69594;43.516;1.498;2023-04-28T13:04:03;7.03;;;3.70;;
80293;SDS011;69594;43.516;1.498;2023-04-28T13:06:29;7.88;;;3.33;;
80293;SDS011;69594;43.516;1.498;2023-04-28T13:08:55;7.27;;;3.30;;
80293;SDS011;69594;43.516;1.498;2023-04-28T13:11:20;6.38;;;3.72;;
80293;SDS011;69594;43.516;1.498;2023-04-28T13:13:47;7.73;;;3.30;;
80293;SDS011;69594;43.516;1.498;2023-04-28T13:16:14;8.82;;;3.80;;
80293;SDS011;69594;43.516;1.498;2023-04-28T13:18:39;6.75;;;3.53;;
80293;SDS011;69594;43.516;1.498;2023-04-28T13:21:04;8.10;;;3.40;;
80293;SDS011;69594;43.516;1.498;2023-04-28T13:23:30;6.37;;;3.37;;
80293;SDS011;69594;43.516;1.498;2023-04-28T13:25:57;7.55;;;4.07;;
80293;SDS011;69594;43.516;1.498;2023-04-28T13:28:22;7.17;;;3.60;;
80293;SDS011;69594;43.516;1.498;2023-04-28T13:30:48;9.50;;;4.07;;
80293;SDS011;69594;43.516;1.498;2023-04-28T13:33:13;8.05;;;3.20;;
80293;SDS011;69594;43.516;1.498;2023-04-28T13:35:39;10.40;;;3.20;;
80293;SDS011;69594;43.516;1.498;2023-04-28T13:38:05;9.02;;;3.72;;
80293;SDS011;69594;43.516;1.498;2023-04-28T13:40:30;8.10;;;3.77;;
80293;SDS011;69594;43.516;1.498;2023-04-28T13:42:57;7.32;;;3.78;;
80293;SDS011;69594;43.516;1.498;2023-04-28T13:45:23;7.37;;;3.63;;
80293;SDS011;69594;43.516;1.498;2023-04-28T13:47:50;8.82;;;4.00;;
80293;SDS011;69594;43.516;1.498;2023-04-28T13:50:15;7.50;;;3.47;;
80293;SDS011;69594;43.516;1.498;2023-04-28T13:52:41;9.80;;;3.50;;
80293;SDS011;69594;43.516;1.498;2023-04-28T13:55:07;7.97;;;4.27;;
80293;SDS011;69594;43.516;1.498;2023-04-28T13:57:33;8.40;;;3.60;;
80293;SDS011;69594;43.516;1.498;2023-04-28T14:00:00;7.15;;;3.60;;
80293;SDS011;69594;43.516;1.498;2023-04-28T14:02:29;6.60;;;3.30;;
80293;SDS011;69594;43.516;1.498;2023-04-28T14:04:55;8.73;;;3.88;;
80293;SDS011;69594;43.516;1.498;2023-04-28T14:07:21;9.03;;;3.83;;
80293;SDS011;69594;43.516;1.498;2023-04-28T14:09:48;9.87;;;3.10;;
80293;SDS011;69594;43.516;1.498;2023-04-28T14:12:13;7.10;;;3.10;;
80293;SDS011;69594;43.516;1.498;2023-04-28T14:14:40;8.35;;;3.58;;
80293;SDS011;69594;43.516;1.498;2023-04-28T14:17:05;5.33;;;2.70;;
80293;SDS011;69594;43.516;1.498;2023-04-28T14:19:31;9.98;;;2.88;;
80293;SDS011;69594;43.516;1.498;2023-04-28T14:21:56;7.00;;;2.83;;
80293;SDS011;69594;43.516;1.498;2023-04-28T14:24:22;6.35;;;2.70;;
80293;SDS011;69594;43.516;1.498;2023-04-28T14:26:48;4.43;;;2.23;;
80293;SDS011;69594;43.516;1.498;2023-04-28T14:29:13;4.50;;;2.40;;
80293;SDS011;69594;43.516;1.498;2023-04-28T14:31:39;5.35;;;2.75;;
80293;SDS011;69594;43.516;1.498;2023-04-28T14:34:04;3.57;;;2.53;;
80293;SDS011;69594;43.516;1.498;2023-04-28T14:36:31;7.67;;;2.40;;
80293;SDS011;69594;43.516;1.498;2023-04-28T14:38:57;5.85;;;2.40;;
80293;SDS011;69594;43.516;1.498;2023-04-28T14:41:23;4.87;;;2.70;;
80293;SDS011;69594;43.516;1.498;2023-04-28T14:43:48;5.37;;;2.30;;
80293;SDS011;69594;43.516;1.498;2023-04-28T14:46:14;5.83;;;2.47;;
80293;SDS011;69594;43.516;1.498;2023-04-28T14:48:42;5.67;;;2.40;;
80293;SDS011;69594;43.516;1.498;2023-04-28T14:51:07;5.03;;;2.70;;
80293;SDS011;69594;43.516;1.498;2023-04-28T14:53:33;5.53;;;2.47;;
80293;SDS011;69594;43.516;1.498;2023-04-28T14:56:00;8.40;;;2.90;;
80293;SDS011;69594;43.516;1.498;2023-04-28T14:58:25;5.53;;;2.28;;
80293;SDS011;69594;43.516;1.498;2023-04-28T15:00:51;5.50;;;2.53;;
80293;SDS011;69594;43.516;1.498;2023-04-28T15:03:17;6.93;;;2.23;;
80293;SDS011;69594;43.516;1.498;2023-04-28T15:05:43;4.97;;;2.72;;
80293;SDS011;69594;43.516;1.498;2023-04-28T15:08:08;5.67;;;2.63;;
80293;SDS011;69594;43.516;1.498;2023-04-28T15:10:38;4.68;;;2.60;;
80293;SDS011;69594;43.516;1.498;2023-04-28T15:13:07;4.18;;;2.50;;
80293;SDS011;69594;43.516;1.498;2023-04-28T15:15:33;3.72;;;2.72;;
80293;SDS011;69594;43.516;1.498;2023-04-28T15:17:59;4.93;;;2.50;;
80293;SDS011;69594;43.516;1.498;2023-04-28T15:20:28;7.07;;;2.77;;
80293;SDS011;69594;43.516;1.498;2023-04-28T15:22:55;4.93;;;2.92;;